createdAt,value
2018-01-02T00:00:44.177Z,1.10
2018-01-02T00:03:11.749Z,1.10
2018-01-02T00:05:39.338Z,0.90
2018-01-02T00:08:06.888Z,0.90
2018-01-02T00:10:34.462Z,0.80
2018-01-02T00:13:02.257Z,0.70
2018-01-02T00:15:29.891Z,0.90
2018-01-02T00:17:57.470Z,0.90
2018-01-02T00:20:25.034Z,0.80
2018-01-02T00:22:53.421Z,0.90
2018-01-02T00:25:21.010Z,0.90
2018-01-02T00:27:48.576Z,0.83
2018-01-02T00:30:16.467Z,1.17
2018-01-02T00:32:44.042Z,1.10
2018-01-02T00:35:11.580Z,0.73
2018-01-02T00:37:39.168Z,1.50
2018-01-02T00:40:07.513Z,1.00
2018-01-02T00:42:35.086Z,1.30
2018-01-02T00:45:02.700Z,0.87
2018-01-02T00:47:30.266Z,0.90
2018-01-02T00:49:57.782Z,0.90
2018-01-02T00:52:26.116Z,1.00
2018-01-02T00:54:54.185Z,0.80
2018-01-02T00:57:21.707Z,1.00
2018-01-02T00:59:49.625Z,1.00
2018-01-02T01:02:17.156Z,1.07
2018-01-02T01:04:45.107Z,0.80
2018-01-02T01:07:12.667Z,0.70
2018-01-02T01:09:40.965Z,0.80
2018-01-02T01:12:08.499Z,0.95
2018-01-02T01:14:36.820Z,1.00
2018-01-02T01:17:04.344Z,1.10
2018-01-02T01:19:31.880Z,0.70
2018-01-02T01:21:59.459Z,0.80
2018-01-02T01:24:27.000Z,0.73
2018-01-02T01:26:54.595Z,1.17
2018-01-02T01:29:22.176Z,1.17
2018-01-02T01:31:49.707Z,0.90
2018-01-02T01:34:17.262Z,0.93
2018-01-02T01:36:44.872Z,1.10
2018-01-02T01:39:12.433Z,0.98
2018-01-02T01:41:39.964Z,1.03
2018-01-02T01:44:07.551Z,0.85
2018-01-02T01:46:35.108Z,1.10
2018-01-02T01:49:02.720Z,1.23
2018-01-02T01:51:31.079Z,1.10
2018-01-02T01:53:59.412Z,1.20
2018-01-02T01:56:27.316Z,1.12
2018-01-02T01:58:55.058Z,0.90
2018-01-02T02:01:22.636Z,1.20
2018-01-02T02:03:50.176Z,1.10
2018-01-02T02:06:17.923Z,1.20
2018-01-02T02:08:45.520Z,0.90
2018-01-02T02:11:25.504Z,1.67
2018-01-02T02:17:34.856Z,1.80
2018-01-02T02:20:02.395Z,0.90
2018-01-02T02:22:29.925Z,1.73
2018-01-02T02:24:57.523Z,0.88
2018-01-02T02:27:25.148Z,1.33
2018-01-02T02:29:52.782Z,1.00
2018-01-02T02:32:20.434Z,1.20
2018-01-02T02:34:49.713Z,1.13
2018-01-02T02:37:17.417Z,1.30
2018-01-02T02:39:45.041Z,1.13
2018-01-02T02:42:14.300Z,1.20
2018-01-02T02:44:41.920Z,1.47
2018-01-02T02:47:09.541Z,1.10
2018-01-02T02:49:37.166Z,1.00
2018-01-02T02:52:04.793Z,1.27
2018-01-02T02:54:32.421Z,1.40
2018-01-02T02:57:00.221Z,1.20
2018-01-02T02:59:27.809Z,1.13
2018-01-02T03:01:56.327Z,1.12
2018-01-02T03:04:25.375Z,1.34
2018-01-02T03:06:54.936Z,1.03
2018-01-02T03:09:22.568Z,1.35
2018-01-02T03:11:50.140Z,1.20
2018-01-02T03:14:17.724Z,1.17
2018-01-02T03:16:45.360Z,1.00
2018-01-02T03:19:26.952Z,1.40
2018-01-02T03:24:24.482Z,1.27
2018-01-02T03:26:52.846Z,1.07
2018-01-02T03:29:20.407Z,1.37
2018-01-02T03:31:48.029Z,1.30
2018-01-02T03:34:17.030Z,1.20
2018-01-02T03:36:44.624Z,1.57
2018-01-02T03:39:13.970Z,1.80
2018-01-02T03:41:41.548Z,2.80
2018-01-02T03:44:09.828Z,1.90
2018-01-02T03:46:37.500Z,1.45
2018-01-02T03:49:05.112Z,1.52
2018-01-02T03:51:32.742Z,1.85
2018-01-02T03:54:00.364Z,1.57
2018-01-02T03:56:27.977Z,1.53
2018-01-02T03:58:55.903Z,1.30
2018-01-02T04:01:23.560Z,1.78
2018-01-02T04:03:51.169Z,1.23
2018-01-02T04:06:19.557Z,1.35
2018-01-02T04:08:47.432Z,1.63
2018-01-02T04:11:16.523Z,1.40
2018-01-02T04:13:44.067Z,1.53
2018-01-02T04:16:12.849Z,1.63
2018-01-02T04:18:40.374Z,1.40
2018-01-02T04:21:07.903Z,1.17
2018-01-02T04:23:35.458Z,1.75
2018-01-02T04:26:02.982Z,1.47
2018-01-02T04:28:30.511Z,1.50
2018-01-02T04:30:58.917Z,1.20
2018-01-02T04:33:26.453Z,1.40
2018-01-02T04:35:53.985Z,1.50
2018-01-02T04:38:21.553Z,1.50
2018-01-02T04:40:49.076Z,1.70
2018-01-02T04:43:16.610Z,2.27
2018-01-02T04:45:44.158Z,2.20
2018-01-02T04:48:11.679Z,2.00
2018-01-02T04:50:39.198Z,2.30
2018-01-02T04:53:06.775Z,1.63
2018-01-02T04:55:35.075Z,2.00
2018-01-02T04:58:02.612Z,1.93
2018-01-02T05:00:31.333Z,2.00
2018-01-02T05:02:58.866Z,1.77
2018-01-02T05:05:27.159Z,1.80
2018-01-02T05:07:54.715Z,2.40
2018-01-02T05:10:22.256Z,2.10
2018-01-02T05:12:49.791Z,2.07
2018-01-02T05:15:17.376Z,1.90
2018-01-02T05:17:44.911Z,2.17
2018-01-02T05:20:12.434Z,2.30
2018-01-02T05:22:39.990Z,2.30
2018-01-02T05:25:07.517Z,1.90
2018-01-02T05:27:35.058Z,2.00
2018-01-02T05:30:02.618Z,2.10
2018-01-02T05:32:30.152Z,2.00
2018-01-02T05:34:57.685Z,1.60
2018-01-02T05:37:25.298Z,1.60
2018-01-02T05:39:52.837Z,1.37
2018-01-02T05:42:20.396Z,1.98
2018-01-02T05:44:47.963Z,2.13
2018-01-02T05:47:16.427Z,2.14
2018-01-02T05:49:43.956Z,2.47
2018-01-02T05:52:11.515Z,1.90
2018-01-02T05:54:39.104Z,2.10
2018-01-02T05:57:06.641Z,3.07
2018-01-02T05:59:34.247Z,2.30
2018-01-02T06:02:02.658Z,1.53
2018-01-02T06:04:30.954Z,2.10
2018-01-02T06:06:58.507Z,1.73
2018-01-02T06:09:26.044Z,1.60
2018-01-02T06:11:53.575Z,1.47
2018-01-02T06:14:22.322Z,1.70
2018-01-02T06:16:49.855Z,1.30
2018-01-02T06:19:18.155Z,1.33
2018-01-02T06:21:45.737Z,1.50
2018-01-02T06:24:15.363Z,1.55
2018-01-02T06:26:42.885Z,1.30
2018-01-02T06:29:10.451Z,1.35
2018-01-02T06:31:38.091Z,1.83
2018-01-02T06:34:05.632Z,1.57
2018-01-02T06:36:33.197Z,1.60
2018-01-02T06:39:01.503Z,1.30
2018-01-02T06:41:29.042Z,1.55
2018-01-02T06:43:57.386Z,1.80
2018-01-02T06:46:24.916Z,1.73
2018-01-02T06:48:52.443Z,1.60
2018-01-02T06:51:20.775Z,1.48
2018-01-02T06:53:48.311Z,1.60
2018-01-02T06:56:16.411Z,1.67
2018-01-02T06:58:44.048Z,1.43
2018-01-02T07:01:11.574Z,1.60
2018-01-02T07:03:39.247Z,1.63
2018-01-02T07:06:07.750Z,1.47
2018-01-02T07:08:35.275Z,1.60
2018-01-02T07:11:02.803Z,1.50
2018-01-02T07:13:30.363Z,1.50
2018-01-02T07:15:57.919Z,1.90
2018-01-02T07:18:25.446Z,1.40
2018-01-02T07:20:52.999Z,1.63
2018-01-02T07:23:20.528Z,1.50
2018-01-02T07:25:49.292Z,1.60
2018-01-02T07:28:16.883Z,1.30
2018-01-02T07:30:45.208Z,1.58
2018-01-02T07:33:12.731Z,1.57
2018-01-02T07:35:40.288Z,1.63
2018-01-02T07:38:07.815Z,1.67
2018-01-02T07:40:35.339Z,1.40
2018-01-02T07:43:02.896Z,1.33
2018-01-02T07:45:30.452Z,1.85
2018-01-02T07:47:57.983Z,1.57
2018-01-02T07:50:25.564Z,1.60
2018-01-02T07:52:53.092Z,1.70
2018-01-02T07:55:20.619Z,1.60
2018-01-02T07:57:48.862Z,2.00
2018-01-02T08:00:16.539Z,2.05
2018-01-02T08:02:44.063Z,2.40
2018-01-02T08:05:12.049Z,2.10
2018-01-02T08:07:39.579Z,2.10
2018-01-02T08:10:07.891Z,1.80
2018-01-02T08:12:35.680Z,2.30
2018-01-02T08:15:03.203Z,3.20
2018-01-02T08:17:30.732Z,1.47
2018-01-02T08:19:59.059Z,1.80
2018-01-02T08:22:27.351Z,1.50
2018-01-02T08:24:54.879Z,1.50
2018-01-02T08:27:22.444Z,2.20
2018-01-02T08:29:49.974Z,1.73
2018-01-02T08:32:18.276Z,1.98
2018-01-02T08:34:45.858Z,1.93
2018-01-02T08:37:25.990Z,2.20
2018-01-02T08:41:39.216Z,2.70
2018-01-02T08:44:06.751Z,1.93
2018-01-02T08:46:34.280Z,2.37
2018-01-02T08:49:01.835Z,1.90
2018-01-02T08:51:29.363Z,2.33
2018-01-02T08:53:56.904Z,2.10
2018-01-02T08:56:25.400Z,2.00
2018-01-02T08:58:52.944Z,1.90
2018-01-02T09:01:21.239Z,2.53
2018-01-02T09:03:48.798Z,2.30
2018-01-02T09:06:16.658Z,1.73
2018-01-02T09:08:44.954Z,1.50
2018-01-02T09:11:16.877Z,1.83
2018-01-02T09:13:50.027Z,2.40
2018-01-02T09:16:17.607Z,2.85
2018-01-02T09:18:45.135Z,2.63
2018-01-02T09:21:13.579Z,2.77
2018-01-02T09:23:41.156Z,3.10
2018-01-02T09:26:08.796Z,2.37
2018-01-02T09:28:38.451Z,1.98
2018-01-02T09:31:06.010Z,2.00
2018-01-02T09:33:33.554Z,1.90
2018-01-02T09:36:01.088Z,1.80
2018-01-02T09:38:28.692Z,1.77
2018-01-02T09:40:57.027Z,2.00
2018-01-02T09:43:24.558Z,2.07
2018-01-02T09:45:52.116Z,1.80
2018-01-02T09:48:19.656Z,2.20
2018-01-02T09:50:47.194Z,2.17
2018-01-02T09:53:16.468Z,2.70
2018-01-02T09:55:43.999Z,2.03
2018-01-02T09:58:11.535Z,2.10
2018-01-02T10:00:39.284Z,2.00
2018-01-02T10:03:06.807Z,1.80
2018-01-02T10:05:35.098Z,2.00
2018-01-02T10:08:04.009Z,2.17
2018-01-02T10:10:31.534Z,2.13
2018-01-02T10:12:59.826Z,2.40
2018-01-02T10:15:27.385Z,1.90
2018-01-02T10:17:54.912Z,2.00
2018-01-02T10:20:22.438Z,2.00
2018-01-02T10:22:50.015Z,2.00
2018-01-02T10:25:17.536Z,1.80
2018-01-02T10:27:45.111Z,2.07
2018-01-02T10:30:13.603Z,1.70
2018-01-02T10:32:41.943Z,2.10
2018-01-02T10:35:09.476Z,2.33
2018-01-02T10:37:37.039Z,1.90
2018-01-02T10:40:04.572Z,2.07
2018-01-02T10:42:32.096Z,3.00
2018-01-02T10:44:59.671Z,2.50
2018-01-02T10:47:27.968Z,2.67
2018-01-02T10:49:55.845Z,2.20
2018-01-02T10:52:23.398Z,2.27
2018-01-02T10:54:50.931Z,2.70
2018-01-02T10:57:19.224Z,2.72
2018-01-02T10:59:46.784Z,3.20
2018-01-02T11:02:25.145Z,2.50
2018-01-02T11:07:25.751Z,3.47
2018-01-02T11:09:53.422Z,3.10
2018-01-02T11:12:26.553Z,2.75
2018-01-02T11:14:54.115Z,3.50
2018-01-02T11:17:22.594Z,2.70
2018-01-02T11:19:50.963Z,2.20
2018-01-02T11:22:18.499Z,2.22
2018-01-02T11:24:46.033Z,1.87
2018-01-02T11:27:14.711Z,2.77
2018-01-02T11:29:42.239Z,1.90
2018-01-02T11:32:09.775Z,2.00
2018-01-02T11:34:37.412Z,2.50
2018-01-02T11:37:04.947Z,2.20
2018-01-02T11:39:32.479Z,2.28
2018-01-02T11:42:00.044Z,2.83
2018-01-02T11:44:28.388Z,2.30
2018-01-02T11:46:55.935Z,2.20
2018-01-02T11:49:23.528Z,2.20
2018-01-02T11:51:51.055Z,2.17
2018-01-02T11:54:18.659Z,2.05
2018-01-02T11:56:47.923Z,2.70
2018-01-02T11:59:16.407Z,2.95
2018-01-02T12:01:43.951Z,2.67
2018-01-02T12:04:11.549Z,2.53
2018-01-02T12:06:39.079Z,2.10
2018-01-02T12:09:06.608Z,2.03
2018-01-02T12:11:34.721Z,2.00
2018-01-02T12:14:02.277Z,1.97
2018-01-02T12:16:29.806Z,2.45
2018-01-02T12:18:57.441Z,2.10
2018-01-02T12:21:24.968Z,2.28
2018-01-02T12:23:52.511Z,2.53
2018-01-02T12:26:20.083Z,2.05
2018-01-02T12:28:47.610Z,2.30
2018-01-02T12:31:15.556Z,2.10
2018-01-02T12:33:43.349Z,2.10
2018-01-02T12:36:16.279Z,2.23
2018-01-02T12:38:43.844Z,1.90
2018-01-02T12:41:12.179Z,2.53
2018-01-02T12:43:39.709Z,2.20
2018-01-02T12:46:07.411Z,2.00
2018-01-02T12:48:35.050Z,1.93
2018-01-02T12:51:02.575Z,2.07
2018-01-02T12:53:30.135Z,2.00
2018-01-02T12:55:58.508Z,2.07
2018-01-02T12:58:26.042Z,2.53
2018-01-02T13:00:53.600Z,2.08
2018-01-02T13:03:21.315Z,2.63
2018-01-02T13:05:48.883Z,1.87
2018-01-02T13:08:17.576Z,1.98
2018-01-02T13:10:45.822Z,2.50
2018-01-02T13:13:15.591Z,2.65
2018-01-02T13:15:43.175Z,2.20
2018-01-02T13:18:11.560Z,2.13
2018-01-02T13:20:39.869Z,2.43
2018-01-02T13:23:07.443Z,2.45
2018-01-02T13:25:35.006Z,2.70
2018-01-02T13:28:02.540Z,2.10
2018-01-02T13:30:30.092Z,2.40
2018-01-02T13:32:57.683Z,1.93
2018-01-02T13:35:26.459Z,2.30
2018-01-02T13:40:31.015Z,2.40
2018-01-02T13:42:59.553Z,1.60
